Wetterdaten für den Flughafen Lübeck Blankensee


ADDS - METARS form results Aviation Digital Data Service (ADDS) Output produced by METARs form (0719 UTC 18 May 2022)
found at http://www.aviationweather.gov/metar/data/
 
EDDH 180650Z AUTO 13009KT 100V170 CAVOK 17/11 Q1023 NOSIG
TAF EDDH 180500Z 1806/1912 12007KT CAVOK BECMG 1809/1811 18010KT PROB40 TEMPO 1814/1819 24010KT SCT045CB BECMG 1818/1820 15005KT BECMG 1906/1908 20010KT

Nord: Hamburg, Lübeck
Ost: Schwerin, Rostock
Süd: Hannover
West: Bremen, Nordhloz

Copyright © 2016 Flugschule Hohensee